Time;durP1;ratioP1;P1;durP2;ratioP2;P2;SDS_P1;SDS_P2;PMS_P1;PMS_P2;Temp;Humidity;BMP_temperature;BMP_pressure;BME280_temperature;BME280_humidity;BME280_pressure;Samples;Min_cycle;Max_cycle;Signal;HPM_P1;HPM_P2
2023/03/10 00:00:50;;;;;;;;;;;;;;;;;;4977720;28;19922;-94
2023/03/10 00:03:16;;;;;;;;;;;;;;;;;;4977708;28;19922;-93
2023/03/10 00:05:42;;;;;;;;;;;;;;;;;;4977217;28;20118;-93
2023/03/10 00:08:08;;;;;;;;;;;;;;;;;;4977239;28;19929;-95
2023/03/10 00:10:34;;;;;;;;;;;;;;;;;;4963053;28;19922;-94
2023/03/10 00:13:00;;;;;;;;;;;;;;;;;;4961669;28;19921;-93
2023/03/10 00:15:26;;;;;;;;;;;;;;;;;;4960240;28;19926;-92
2023/03/10 00:17:54;;;;;;;;;;;;;;;;;;4976556;28;19930;-91
2023/03/10 00:20:20;;;;;;;;;;;;;;;;;;4960671;28;19922;-92
2023/03/10 00:22:46;;;;;;;;;;;;;;;;;;4960558;28;19921;-92
2023/03/10 00:25:12;;;;;;;;;;;;;;;;;;4960180;28;19922;-92
2023/03/10 00:27:38;;;;;;;;;;;;;;;;;;4960451;28;19922;-92
2023/03/10 00:30:04;;;;;;;;;;;;;;;;;;4960384;28;20275;-92
2023/03/10 00:32:30;;;;;;;;;;;;;;;;;;4960346;28;19980;-92
2023/03/10 00:34:56;;;;;;;;;;;;;;;;;;4960054;28;19922;-92
2023/03/10 00:37:21;;;;;;;;;;;;;;;;;;4960310;28;19953;-91
2023/03/10 00:39:47;;;;;;;;;;;;;;;;;;4976075;28;19922;-92
2023/03/10 00:42:13;;;;;;;;;;;;;;;;;;4960120;28;20005;-92
2023/03/10 00:44:39;;;;;;;;;;;;;;;;;;4976249;28;19991;-91
2023/03/10 00:47:05;;;;;;;;;;;;;;;;;;4960082;28;20378;-91
2023/03/10 00:49:31;;;;;;;;;;;;;;;;;;4976231;28;19922;-92
2023/03/10 00:51:57;;;;;;;;;;;;;;;;;;4959797;28;19928;-91
2023/03/10 00:54:26;;;;;;;;;;;;;;;;;;4975890;28;19925;-91
2023/03/10 00:56:52;;;;;;;;;;;;;;;;;;4975969;28;19929;-91
2023/03/10 00:59:18;;;;;;;;;;;;;;;;;;4975770;28;19926;-91
2023/03/10 01:01:44;;;;;;;;;;;;;;;;;;4959851;28;20298;-92
2023/03/10 01:04:10;;;;;;;;;;;;;;;;;;4975779;28;19922;-91
2023/03/10 01:06:36;;;;;;;;;;;;;;;;;;4975795;28;20387;-92
2023/03/10 01:09:02;;;;;;;;;;;;;;;;;;4959606;28;19926;-92
2023/03/10 01:11:27;;;;;;;;;;;;;;;;;;4959696;28;19926;-92
2023/03/10 01:13:53;;;;;;;;;;;;;;;;;;4959693;28;19926;-91
2023/03/10 01:16:19;;;;;;;;;;;;;;;;;;4959573;28;19922;-91
2023/03/10 01:18:48;;;;;;;;;;;;;;;;;;4975759;28;19925;-93
2023/03/10 01:21:14;;;;;;;;;;;;;;;;;;4960165;28;20425;-93
2023/03/10 01:23:43;;;;;;;;;;;;;;;;;;4960391;28;20080;-93
2023/03/10 01:26:09;;;;;;;;;;;;;;;;;;4960227;28;20296;-94
2023/03/10 01:28:35;;;;;;;;;;;;;;;;;;4959864;28;19922;-93
2023/03/10 01:31:03;;;;;;;;;;;;;;;;;;4959830;28;19976;-93
2023/03/10 01:33:29;;;;;;;;;;;;;;;;;;4960070;28;20302;-93
2023/03/10 01:35:55;;;;;;;;;;;;;;;;;;4960125;28;19922;-93
2023/03/10 01:38:21;;;;;;;;;;;;;;;;;;4959963;28;20012;-94
2023/03/10 01:40:47;;;;;;;;;;;;;;;;;;4961325;28;20009;-93
2023/03/10 01:43:13;;;;;;;;;;;;;;;;;;4963731;28;19926;-94
2023/03/10 01:45:39;;;;;;;;;;;;;;;;;;4963514;28;19929;-93
2023/03/10 01:48:05;;;;;;;;;;;;;;;;;;4963462;28;19922;-93
2023/03/10 01:50:31;;;;;;;;;;;;;;;;;;4964400;28;19922;-95
2023/03/10 01:52:57;;;;;;;;;;;;;;;;;;4982460;28;19928;-93
2023/03/10 01:55:23;;;;;;;;;;;;;;;;;;4979650;28;19926;-93
2023/03/10 01:57:52;;;;;;;;;;;;;;;;;;4963693;28;19960;-93
2023/03/10 02:00:18;;;;;;;;;;;;;;;;;;4963471;28;20311;-95
2023/03/10 02:02:45;;;;;;;;;;;;;;;;;;4963446;28;19922;-95
2023/03/10 02:05:11;;;;;;;;;;;;;;;;;;4963274;28;20344;-94
2023/03/10 02:07:37;;;;;;;;;;;;;;;;;;4963267;28;19928;-94
2023/03/10 02:10:03;;;;;;;;;;;;;;;;;;4963487;28;19926;-94
2023/03/10 02:12:29;;;;;;;;;;;;;;;;;;4963040;28;19929;-94
2023/03/10 02:14:58;;;;;;;;;;;;;;;;;;4963849;28;20449;-96
2023/03/10 02:17:23;;;;;;;;;;;;;;;;;;4963468;28;19966;-92
2023/03/10 02:19:49;;;;;;;;;;;;;;;;;;4962844;28;19956;-93
2023/03/10 02:22:16;;;;;;;;;;;;;;;;;;4963854;28;19921;-91
2023/03/10 02:24:41;;;;;;;;;;;;;;;;;;4963366;28;19986;-92
2023/03/10 02:27:07;;;;;;;;;;;;;;;;;;4963308;28;20210;-93
2023/03/10 02:29:33;;;;;;;;;;;;;;;;;;4978830;28;19973;-93
2023/03/10 02:31:59;;;;;;;;;;;;;;;;;;4962665;28;19922;-93
2023/03/10 02:34:25;;;;;;;;;;;;;;;;;;4962424;28;19922;-93
2023/03/10 02:36:51;;;;;;;;;;;;;;;;;;4962489;28;20012;-93
2023/03/10 02:39:20;;;;;;;;;;;;;;;;;;4962488;28;19926;-95
2023/03/10 02:41:45;;;;;;;;;;;;;;;;;;4978732;28;20489;-93
2023/03/10 02:44:11;;;;;;;;;;;;;;;;;;4962736;28;20098;-95
2023/03/10 02:46:37;;;;;;;;;;;;;;;;;;4962761;28;19972;-95
2023/03/10 02:49:11;;;;;;;;;;;;;;;;;;4962961;28;19996;-95
2023/03/10 02:51:39;;;;;;;;;;;;;;;;;;4962623;28;20379;-94
2023/03/10 02:54:08;;;;;;;;;;;;;;;;;;4978807;28;19928;-94
2023/03/10 02:56:34;;;;;;;;;;;;;;;;;;4962678;28;20362;-94
2023/03/10 02:59:00;;;;;;;;;;;;;;;;;;4962816;28;19941;-95
2023/03/10 03:01:26;;;;;;;;;;;;;;;;;;4962559;28;19922;-94
2023/03/10 03:03:55;;;;;;;;;;;;;;;;;;4963166;28;20333;-94
2023/03/10 03:06:21;;;;;;;;;;;;;;;;;;4961166;28;20004;-94
2023/03/10 03:08:47;;;;;;;;;;;;;;;;;;4978261;28;19963;-94
2023/03/10 03:11:13;;;;;;;;;;;;;;;;;;4962287;28;19926;-94
2023/03/10 03:13:39;;;;;;;;;;;;;;;;;;4962131;28;20009;-95
2023/03/10 03:16:08;;;;;;;;;;;;;;;;;;4962385;28;20442;-95
2023/03/10 03:18:34;;;;;;;;;;;;;;;;;;4962126;28;20382;-94
2023/03/10 03:21:00;;;;;;;;;;;;;;;;;;4962194;28;19968;-94
2023/03/10 03:23:28;;;;;;;;;;;;;;;;;;4961905;28;19928;-94
2023/03/10 03:25:54;;;;;;;;;;;;;;;;;;4962035;28;20017;-94
2023/03/10 03:28:20;;;;;;;;;;;;;;;;;;4962262;28;20386;-94
2023/03/10 03:30:46;;;;;;;;;;;;;;;;;;4962333;28;20371;-95
2023/03/10 03:33:12;;;;;;;;;;;;;;;;;;4962485;28;19921;-94
2023/03/10 03:35:41;;;;;;;;;;;;;;;;;;4962283;28;20009;-94
2023/03/10 03:38:07;;;;;;;;;;;;;;;;;;4961941;28;20037;-94
2023/03/10 03:40:33;;;;;;;;;;;;;;;;;;4962388;28;19926;-94
2023/03/10 03:42:59;;;;;;;;;;;;;;;;;;4962358;28;19922;-95
2023/03/10 03:45:25;;;;;;;;;;;;;;;;;;4961921;28;19929;-95
2023/03/10 03:47:54;;;;;;;;;;;;;;;;;;4978802;28;20287;-94
2023/03/10 03:50:20;;;;;;;;;;;;;;;;;;4962329;28;19992;-95
2023/03/10 03:52:46;;;;;;;;;;;;;;;;;;4962203;28;20294;-94
2023/03/10 03:55:15;;;;;;;;;;;;;;;;;;4963071;28;20009;-96
2023/03/10 03:57:47;;;;;;;;;;;;;;;;;;4962504;28;20032;-96
2023/03/10 04:00:13;;;;;;;;;;;;;;;;;;4978942;28;20181;-96
2023/03/10 04:02:41;;;;;;;;;;;;;;;;;;4962775;28;19921;-96
2023/03/10 04:05:07;;;;;;;;;;;;;;;;;;4963627;28;19953;-96
2023/03/10 04:07:36;;;;;;;;;;;;;;;;;;4963541;28;19928;-96
2023/03/10 04:10:05;;;;;;;;;;;;;;;;;;4965241;28;19944;-96
2023/03/10 04:12:34;;;;;;;;;;;;;;;;;;4965150;28;20084;-95
2023/03/10 04:15:21;;;;;;;;;;;;;;;;;;4968741;28;19937;-96
2023/03/10 04:17:58;;;;;;;;;;;;;;;;;;4989799;28;19932;-94
2023/03/10 04:20:34;;;;;;;;;;;;;;;;;;;;;
2023/03/10 04:23:06;;;;;;;;;;;;;;;;;;4993421;28;19932;-94
2023/03/10 04:25:32;;;;;;;;;;;;;;;;;;4967076;28;19978;-95
2023/03/10 04:28:03;;;;;;;;;;;;;;;;;;4924567;29;19969;-95
2023/03/10 04:30:29;;;;;;;;;;;;;;;;;;4924842;29;20287;-95
2023/03/10 04:32:55;;;;;;;;;;;;;;;;;;4924325;29;19938;-96
2023/03/10 04:35:21;;;;;;;;;;;;;;;;;;4925217;29;19949;-95
2023/03/10 04:37:52;;;;;;;;;;;;;;;;;;4930490;29;19931;-96
2023/03/10 04:40:18;;;;;;;;;;;;;;;;;;4930276;29;19922;-95
2023/03/10 04:42:48;;;;;;;;;;;;;;;;;;4950704;29;19970;-95
2023/03/10 04:45:17;;;;;;;;;;;;;;;;;;4950149;29;19922;-94
2023/03/10 04:47:43;;;;;;;;;;;;;;;;;;4934290;29;19926;-94
2023/03/10 04:50:25;;;;;;;;;;;;;;;;;;4948096;29;19930;-96
2023/03/10 04:53:00;;;;;;;;;;;;;;;;;;4931197;29;19951;-96
2023/03/10 04:55:29;;;;;;;;;;;;;;;;;;4926042;28;19922;-95
2023/03/10 04:57:55;;;;;;;;;;;;;;;;;;4965235;28;20342;-96
2023/03/10 05:00:42;;;;;;;;;;;;;;;;;;4963039;28;20188;-95
2023/03/10 05:03:14;;;;;;;;;;;;;;;;;;4977439;28;19929;-95
2023/03/10 05:05:43;;;;;;;;;;;;;;;;;;4965063;28;19976;-96
2023/03/10 05:08:22;;;;;;;;;;;;;;;;;;;;;
2023/03/10 05:10:58;;;;;;;;;;;;;;;;;;4997760;28;19922;-96
2023/03/10 05:13:32;;;;;;;;;;;;;;;;;;4962402;28;20279;-93
2023/03/10 05:15:58;;;;;;;;;;;;;;;;;;4959613;28;19926;-94
2023/03/10 05:18:24;;;;;;;;;;;;;;;;;;4960583;28;19926;-94
2023/03/10 05:20:50;;;;;;;;;;;;;;;;;;4960265;28;19965;-94
2023/03/10 05:23:22;;;;;;;;;;;;;;;;;;4960653;28;19922;-94
2023/03/10 05:25:48;;;;;;;;;;;;;;;;;;4960241;28;19922;-94
2023/03/10 05:28:14;;;;;;;;;;;;;;;;;;4976748;28;19967;-93
2023/03/10 05:30:43;;;;;;;;;;;;;;;;;;4961070;28;20459;-96
2023/03/10 05:33:10;;;;;;;;;;;;;;;;;;4960815;28;19929;-96
2023/03/10 05:35:36;;;;;;;;;;;;;;;;;;4976402;28;20289;-95
2023/03/10 05:38:04;;;;;;;;;;;;;;;;;;4960348;28;19925;-94
2023/03/10 05:40:30;;;;;;;;;;;;;;;;;;4960334;28;19981;-93
2023/03/10 05:42:56;;;;;;;;;;;;;;;;;;4960382;28;19921;-94
2023/03/10 05:45:22;;;;;;;;;;;;;;;;;;4960470;28;20315;-93
2023/03/10 05:47:48;;;;;;;;;;;;;;;;;;4975924;28;20256;-93
2023/03/10 05:50:14;;;;;;;;;;;;;;;;;;4959610;28;19929;-94
2023/03/10 05:52:40;;;;;;;;;;;;;;;;;;4959665;28;19922;-92
2023/03/10 05:55:06;;;;;;;;;;;;;;;;;;4959595;28;19929;-93
2023/03/10 05:57:32;;;;;;;;;;;;;;;;;;4959544;28;19926;-92
2023/03/10 06:00:00;;;;;;;;;;;;;;;;;;4959944;28;19921;-93
2023/03/10 06:02:26;;;;;;;;;;;;;;;;;;4975505;28;20397;-93
2023/03/10 06:04:52;;;;;;;;;;;;;;;;;;4959336;28;20009;-92
2023/03/10 06:07:18;;;;;;;;;;;;;;;;;;4959534;28;19984;-93
2023/03/10 06:09:47;;;;;;;;;;;;;;;;;;4960204;28;20371;-93
2023/03/10 06:12:13;;;;;;;;;;;;;;;;;;4959591;28;19941;-94
2023/03/10 06:14:39;;;;;;;;;;;;;;;;;;4959469;28;19926;-93
2023/03/10 06:17:05;;;;;;;;;;;;;;;;;;4959846;28;19953;-94
2023/03/10 06:19:31;;;;;;;;;;;;;;;;;;4959507;28;19929;-92
2023/03/10 06:21:57;;;;;;;;;;;;;;;;;;4959847;28;19929;-94
2023/03/10 06:24:23;;;;;;;;;;;;;;;;;;4959538;28;19925;-92
2023/03/10 06:26:52;;;;;;;;;;;;;;;;;;4961761;28;20378;-94
2023/03/10 06:29:18;;;;;;;;;;;;;;;;;;4963348;28;20251;-91
2023/03/10 06:31:43;;;;;;;;;;;;;;;;;;4962486;28;19925;-92
2023/03/10 06:34:09;;;;;;;;;;;;;;;;;;4962306;28;20388;-94
2023/03/10 06:36:38;;;;;;;;;;;;;;;;;;4962323;28;19921;-92
2023/03/10 06:39:03;;;;;;;;;;;;;;;;;;4962305;28;19930;-91
2023/03/10 06:41:29;;;;;;;;;;;;;;;;;;4962440;28;20409;-91
2023/03/10 06:43:55;;;;;;;;;;;;;;;;;;4962237;28;19922;-92
2023/03/10 06:46:21;;;;;;;;;;;;;;;;;;4962270;28;19922;-92
2023/03/10 06:48:47;;;;;;;;;;;;;;;;;;4962360;28;19922;-91
2023/03/10 06:51:13;;;;;;;;;;;;;;;;;;4962436;28;19925;-92
2023/03/10 06:53:42;;;;;;;;;;;;;;;;;;4962840;28;20012;-93
2023/03/10 06:56:08;;;;;;;;;;;;;;;;;;4962360;28;19929;-93
2023/03/10 06:58:35;;;;;;;;;;;;;;;;;;4962607;28;19949;-92
2023/03/10 07:01:01;;;;;;;;;;;;;;;;;;4962602;28;20016;-94
2023/03/10 07:06:37;;;;;;;;;;;;;;;;;;5006145;28;19925;-95
2023/03/10 07:12:01;;;;;;;;;;;;;;;;;;5132382;23;19936;-94
2023/03/10 07:14:30;;;;;;;;;;;;;;;;;;4965046;28;19984;-94
2023/03/10 07:16:57;;;;;;;;;;;;;;;;;;4968029;28;20375;-96
2023/03/10 07:19:58;;;;;;;;;;;;;;;;;;4983145;28;19926;-94
2023/03/10 07:22:24;;;;;;;;;;;;;;;;;;4978654;28;19944;-95
2023/03/10 07:24:56;;;;;;;;;;;;;;;;;;4962706;28;20012;-95
2023/03/10 07:27:22;;;;;;;;;;;;;;;;;;4962392;28;19968;-94
2023/03/10 07:29:50;;;;;;;;;;;;;;;;;;4967062;28;19921;-96
2023/03/10 07:32:34;;;;;;;;;;;;;;;;;;4973013;28;19922;-93
2023/03/10 07:35:00;;;;;;;;;;;;;;;;;;4965570;28;19922;-94
2023/03/10 07:37:35;;;;;;;;;;;;;;;;;;4978033;28;19972;-95
2023/03/10 07:40:04;;;;;;;;;;;;;;;;;;4985238;28;19972;-95
2023/03/10 07:42:33;;;;;;;;;;;;;;;;;;4980884;28;20345;-94
2023/03/10 07:44:59;;;;;;;;;;;;;;;;;;4985618;28;19921;-95
2023/03/10 07:47:26;;;;;;;;;;;;;;;;;;4991302;28;20017;-96
2023/03/10 07:49:52;;;;;;;;;;;;;;;;;;4964819;28;19973;-94
2023/03/10 07:52:21;;;;;;;;;;;;;;;;;;4962893;28;19922;-94
2023/03/10 07:54:47;;;;;;;;;;;;;;;;;;4979484;28;19968;-96
2023/03/10 07:57:13;;;;;;;;;;;;;;;;;;5005692;28;19925;-95
2023/03/10 07:59:40;;;;;;;;;;;;;;;;;;4988798;28;19936;-94
2023/03/10 08:02:07;;;;;;;;;;;;;;;;;;5000301;28;20385;-95
2023/03/10 08:04:33;;;;;;;;;;;;;;;;;;4982798;28;19926;-94
2023/03/10 08:07:05;;;;;;;;;;;;;;;;;;4983226;28;19977;-94
2023/03/10 08:09:49;;;;;;;;;;;;;;;;;;4994335;28;19926;-94
2023/03/10 08:12:15;;;;;;;;;;;;;;;;;;4980146;28;19928;-95
2023/03/10 08:28:15;;;;;;;;;;;;;;;;;;5823022;23;20209;-93
2023/03/10 08:39:32;;;;;;;;;;;;;;;;;;4991044;28;21778;-94
2023/03/10 08:55:41;;;;;;;;;;;;;;;;;;5017029;23;19926;-94
2023/03/10 08:58:07;;;;;;;;;;;;;;;;;;4966245;28;19933;-95
2023/03/10 09:00:37;;;;;;;;;;;;;;;;;;4968197;28;19921;-96
2023/03/10 09:03:25;;;;;;;;;;;;;;;;;;5004905;28;19920;-93
2023/03/10 09:06:13;;;;;;;;;;;;;;;;;;4981121;28;19929;-93
2023/03/10 09:08:40;;;;;;;;;;;;;;;;;;4964882;28;19933;-95
2023/03/10 09:11:06;;;;;;;;;;;;;;;;;;4962561;28;19929;-93
2023/03/10 09:13:32;;;;;;;;;;;;;;;;;;4961394;28;19922;-93
2023/03/10 09:15:58;;;;;;;;;;;;;;;;;;4960527;28;19972;-93
2023/03/10 09:18:24;;;;;;;;;;;;;;;;;;4960271;28;19925;-95
2023/03/10 09:20:50;;;;;;;;;;;;;;;;;;4960717;28;19932;-93
2023/03/10 09:23:16;;;;;;;;;;;;;;;;;;4960570;28;19922;-92
2023/03/10 09:25:42;;;;;;;;;;;;;;;;;;4960277;28;19929;-94
2023/03/10 09:28:08;;;;;;;;;;;;;;;;;;4960394;28;19972;-95
2023/03/10 09:30:36;;;;;;;;;;;;;;;;;;4960391;28;19921;-94
2023/03/10 09:33:02;;;;;;;;;;;;;;;;;;4960255;28;19922;-93
2023/03/10 09:35:28;;;;;;;;;;;;;;;;;;4963619;28;19929;-93
2023/03/10 09:37:54;;;;;;;;;;;;;;;;;;4960349;28;19925;-94
2023/03/10 09:40:20;;;;;;;;;;;;;;;;;;4960396;28;19944;-94
2023/03/10 09:42:47;;;;;;;;;;;;;;;;;;4960408;28;20035;-93
2023/03/10 09:45:13;;;;;;;;;;;;;;;;;;4960284;28;20012;-93
2023/03/10 09:47:40;;;;;;;;;;;;;;;;;;4960026;28;20016;-92
2023/03/10 09:50:06;;;;;;;;;;;;;;;;;;4976547;28;20370;-92
2023/03/10 09:52:32;;;;;;;;;;;;;;;;;;4959833;28;19929;-93
2023/03/10 09:54:58;;;;;;;;;;;;;;;;;;4959484;28;19953;-93
2023/03/10 09:57:24;;;;;;;;;;;;;;;;;;4959589;28;19922;-92
2023/03/10 09:59:50;;;;;;;;;;;;;;;;;;4960094;28;19941;-93
2023/03/10 10:02:16;;;;;;;;;;;;;;;;;;4962211;28;19937;-94
2023/03/10 10:04:42;;;;;;;;;;;;;;;;;;4963386;28;19929;-94
2023/03/10 10:07:08;;;;;;;;;;;;;;;;;;4963784;28;19976;-93
2023/03/10 10:09:41;;;;;;;;;;;;;;;;;;4964364;28;19922;-95
2023/03/10 10:12:17;;;;;;;;;;;;;;;;;;4980714;28;19921;-94
2023/03/10 10:14:45;;;;;;;;;;;;;;;;;;4963191;28;19929;-95
2023/03/10 10:17:11;;;;;;;;;;;;;;;;;;4979973;28;19929;-94
2023/03/10 10:19:39;;;;;;;;;;;;;;;;;;4963397;28;19926;-94
2023/03/10 10:22:05;;;;;;;;;;;;;;;;;;4963605;28;20413;-94
2023/03/10 10:24:31;;;;;;;;;;;;;;;;;;4964714;28;19922;-95
2023/03/10 10:26:57;;;;;;;;;;;;;;;;;;4978237;28;19970;-94
2023/03/10 10:29:23;;;;;;;;;;;;;;;;;;4982966;28;19922;-94
2023/03/10 10:31:50;;;;;;;;;;;;;;;;;;4986248;28;19928;-93
2023/03/10 10:34:16;;;;;;;;;;;;;;;;;;4986748;28;19922;-93
2023/03/10 10:36:42;;;;;;;;;;;;;;;;;;4975424;28;19933;-95
2023/03/10 10:39:08;;;;;;;;;;;;;;;;;;4964627;28;19933;-94
2023/03/10 10:41:36;;;;;;;;;;;;;;;;;;4963432;28;19921;-94
2023/03/10 10:44:02;;;;;;;;;;;;;;;;;;4963201;28;20009;-94
2023/03/10 10:46:28;;;;;;;;;;;;;;;;;;4963217;28;20382;-94
2023/03/10 10:48:54;;;;;;;;;;;;;;;;;;4964014;28;20004;-95
2023/03/10 10:51:28;;;;;;;;;;;;;;;;;;4963722;28;19921;-94
2023/03/10 10:54:00;;;;;;;;;;;;;;;;;;4979685;28;20037;-95
2023/03/10 10:56:27;;;;;;;;;;;;;;;;;;4963382;28;20028;-94
2023/03/10 10:58:53;;;;;;;;;;;;;;;;;;4964280;28;19926;-94
2023/03/10 11:01:22;;;;;;;;;;;;;;;;;;4964230;28;19933;-96
2023/03/10 11:03:56;;;;;;;;;;;;;;;;;;4964317;28;19930;-95
2023/03/10 11:06:43;;;;;;;;;;;;;;;;;;4966410;28;19922;-94
2023/03/10 11:09:21;;;;;;;;;;;;;;;;;;;;;
2023/03/10 11:15:19;;;;;;;;;;;;;;;;;;4947723;28;19928;-95
2023/03/10 11:18:18;;;;;;;;;;;;;;;;;;4987591;28;20051;-96
2023/03/10 11:21:05;;;;;;;;;;;;;;;;;;4975705;28;19997;-94
2023/03/10 11:32:55;;;;;;;;;;;;;;;;;;5161801;23;20361;-96
2023/03/10 11:35:25;;;;;;;;;;;;;;;;;;4968229;28;19945;-94
2023/03/10 11:37:51;;;;;;;;;;;;;;;;;;4965358;28;19937;-93
2023/03/10 11:40:23;;;;;;;;;;;;;;;;;;4968603;28;20005;-96
2023/03/10 11:48:14;;;;;;;;;;;;;;;;;;5114097;23;19926;-96
2023/03/10 11:50:43;;;;;;;;;;;;;;;;;;4945288;28;19926;-94
2023/03/10 11:56:13;;;;;;;;;;;;;;;;;;;;;
2023/03/10 11:58:46;;;;;;;;;;;;;;;;;;4961455;28;19932;-96
2023/03/10 12:01:12;;;;;;;;;;;;;;;;;;4944222;28;19928;-95
2023/03/10 12:03:38;;;;;;;;;;;;;;;;;;4942288;28;20020;-95
2023/03/10 12:09:19;;;;;;;;;;;;;;;;;;4917732;29;19994;-96
2023/03/10 12:11:55;;;;;;;;;;;;;;;;;;4902403;29;19923;-96
2023/03/10 12:14:23;;;;;;;;;;;;;;;;;;4936426;28;19929;-95
2023/03/10 12:17:00;;;;;;;;;;;;;;;;;;4945570;28;19922;-93
2023/03/10 12:19:29;;;;;;;;;;;;;;;;;;4942778;28;19926;-90
2023/03/10 12:21:55;;;;;;;;;;;;;;;;;;4940991;28;19957;-90
2023/03/10 12:24:21;;;;;;;;;;;;;;;;;;4940917;28;19922;-90
2023/03/10 12:26:48;;;;;;;;;;;;;;;;;;4957349;28;19933;-91
2023/03/10 12:29:14;;;;;;;;;;;;;;;;;;4940629;28;19922;-90
2023/03/10 12:31:40;;;;;;;;;;;;;;;;;;4956825;28;20041;-89
2023/03/10 12:34:06;;;;;;;;;;;;;;;;;;4975551;28;20021;-89
2023/03/10 12:36:32;;;;;;;;;;;;;;;;;;4962642;28;20370;-93
2023/03/10 12:39:01;;;;;;;;;;;;;;;;;;4971102;28;19926;-90
2023/03/10 12:41:27;;;;;;;;;;;;;;;;;;4942314;28;20299;-91
2023/03/10 12:43:53;;;;;;;;;;;;;;;;;;4941033;28;19973;-91
2023/03/10 12:46:19;;;;;;;;;;;;;;;;;;4945095;28;19922;-90
2023/03/10 12:48:45;;;;;;;;;;;;;;;;;;4942475;28;19996;-90
2023/03/10 12:51:11;;;;;;;;;;;;;;;;;;4943869;28;20008;-90
2023/03/10 12:53:37;;;;;;;;;;;;;;;;;;4940232;28;20290;-89
2023/03/10 12:56:03;;;;;;;;;;;;;;;;;;4940555;28;19922;-88
2023/03/10 12:58:29;;;;;;;;;;;;;;;;;;4940425;28;19927;-89
2023/03/10 13:00:55;;;;;;;;;;;;;;;;;;4940457;28;20347;-91
2023/03/10 13:03:21;;;;;;;;;;;;;;;;;;4940561;28;20363;-90
2023/03/10 13:05:47;;;;;;;;;;;;;;;;;;4940761;28;19930;-88
2023/03/10 13:08:13;;;;;;;;;;;;;;;;;;4940294;28;19929;-90
2023/03/10 13:10:39;;;;;;;;;;;;;;;;;;4940251;28;19929;-89
2023/03/10 13:13:07;;;;;;;;;;;;;;;;;;4940290;28;19922;-88
2023/03/10 13:15:33;;;;;;;;;;;;;;;;;;4939964;28;19922;-89
2023/03/10 13:17:59;;;;;;;;;;;;;;;;;;4956429;28;19933;-89
2023/03/10 13:20:25;;;;;;;;;;;;;;;;;;4940341;28;19930;-90
2023/03/10 13:22:51;;;;;;;;;;;;;;;;;;4940120;28;19929;-91
2023/03/10 13:25:17;;;;;;;;;;;;;;;;;;4940019;28;19940;-89
2023/03/10 13:27:43;;;;;;;;;;;;;;;;;;4956052;28;20009;-90
2023/03/10 13:30:08;;;;;;;;;;;;;;;;;;4940117;28;19962;-91
2023/03/10 13:32:37;;;;;;;;;;;;;;;;;;4956575;28;19926;-90
2023/03/10 13:35:03;;;;;;;;;;;;;;;;;;4940231;28;19976;-91
2023/03/10 13:37:30;;;;;;;;;;;;;;;;;;4942993;28;19929;-90
2023/03/10 13:39:56;;;;;;;;;;;;;;;;;;4943961;28;19922;-90
2023/03/10 13:42:22;;;;;;;;;;;;;;;;;;4944190;28;19922;-90
2023/03/10 13:44:48;;;;;;;;;;;;;;;;;;4943949;28;19929;-90
2023/03/10 13:47:14;;;;;;;;;;;;;;;;;;4959749;28;19926;-91
2023/03/10 13:49:40;;;;;;;;;;;;;;;;;;4944213;28;20286;-92
2023/03/10 13:52:06;;;;;;;;;;;;;;;;;;4960392;28;19928;-94
2023/03/10 13:54:32;;;;;;;;;;;;;;;;;;4944368;28;19929;-93
2023/03/10 13:56:59;;;;;;;;;;;;;;;;;;4960183;28;20291;-93
2023/03/10 13:59:24;;;;;;;;;;;;;;;;;;4944881;28;19933;-91
2023/03/10 14:01:52;;;;;;;;;;;;;;;;;;4944448;28;19929;-90
2023/03/10 14:04:18;;;;;;;;;;;;;;;;;;4944493;28;19965;-92
2023/03/10 14:06:44;;;;;;;;;;;;;;;;;;4943521;28;19965;-90
2023/03/10 14:09:10;;;;;;;;;;;;;;;;;;4959288;28;19949;-89
2023/03/10 14:11:36;;;;;;;;;;;;;;;;;;4959432;28;19931;-89
2023/03/10 14:14:04;;;;;;;;;;;;;;;;;;4943590;28;19961;-89
2023/03/10 14:16:30;;;;;;;;;;;;;;;;;;4959182;28;19922;-89
2023/03/10 14:18:56;;;;;;;;;;;;;;;;;;4943444;28;19926;-91
2023/03/10 14:21:22;;;;;;;;;;;;;;;;;;4943379;28;19928;-90
2023/03/10 14:23:47;;;;;;;;;;;;;;;;;;4943401;28;19922;-90
2023/03/10 14:26:13;;;;;;;;;;;;;;;;;;4943393;28;20236;-90
2023/03/10 14:28:40;;;;;;;;;;;;;;;;;;4943099;28;20378;-91
2023/03/10 14:31:06;;;;;;;;;;;;;;;;;;4959319;28;20299;-90
2023/03/10 14:33:32;;;;;;;;;;;;;;;;;;4943811;28;19929;-91
2023/03/10 14:35:58;;;;;;;;;;;;;;;;;;4942993;28;19922;-89
2023/03/10 14:38:24;;;;;;;;;;;;;;;;;;4943081;28;19926;-92
2023/03/10 14:40:50;;;;;;;;;;;;;;;;;;4943405;28;19945;-91
2023/03/10 14:43:16;;;;;;;;;;;;;;;;;;4943447;28;19922;-90
2023/03/10 14:45:43;;;;;;;;;;;;;;;;;;4958744;28;19926;-88
2023/03/10 14:48:09;;;;;;;;;;;;;;;;;;4941893;28;19930;-89
2023/03/10 14:50:35;;;;;;;;;;;;;;;;;;4943318;28;19922;-88
2023/03/10 14:53:00;;;;;;;;;;;;;;;;;;4943888;28;19922;-88
2023/03/10 14:55:26;;;;;;;;;;;;;;;;;;4961167;28;19926;-87
2023/03/10 14:57:52;;;;;;;;;;;;;;;;;;4946364;28;20449;-88
2023/03/10 15:00:18;;;;;;;;;;;;;;;;;;4976904;28;19922;-89
2023/03/10 15:02:44;;;;;;;;;;;;;;;;;;4971851;28;19922;-88
2023/03/10 15:05:10;;;;;;;;;;;;;;;;;;4942914;28;20054;-88
2023/03/10 15:07:36;;;;;;;;;;;;;;;;;;4943091;28;20359;-88
2023/03/10 15:10:02;;;;;;;;;;;;;;;;;;4958607;28;19922;-88
2023/03/10 15:12:28;;;;;;;;;;;;;;;;;;4942270;28;19922;-88
2023/03/10 15:14:54;;;;;;;;;;;;;;;;;;4942466;28;19949;-88
2023/03/10 15:17:20;;;;;;;;;;;;;;;;;;4958212;28;19929;-85
2023/03/10 15:19:45;;;;;;;;;;;;;;;;;;4958482;28;19972;-87
2023/03/10 15:22:11;;;;;;;;;;;;;;;;;;4958456;28;20012;-87
2023/03/10 15:24:37;;;;;;;;;;;;;;;;;;4942852;28;20401;-89
2023/03/10 15:27:03;;;;;;;;;;;;;;;;;;4941931;28;19922;-87
2023/03/10 15:29:29;;;;;;;;;;;;;;;;;;4958051;28;19922;-88
2023/03/10 15:31:56;;;;;;;;;;;;;;;;;;4942285;28;19945;-88
2023/03/10 15:34:22;;;;;;;;;;;;;;;;;;4942143;28;19922;-88
2023/03/10 15:36:48;;;;;;;;;;;;;;;;;;4941939;28;19922;-88
2023/03/10 15:39:14;;;;;;;;;;;;;;;;;;4958056;28;19926;-88
2023/03/10 15:41:40;;;;;;;;;;;;;;;;;;4941735;28;20399;-88
2023/03/10 15:44:06;;;;;;;;;;;;;;;;;;4958001;28;19928;-88
2023/03/10 15:46:32;;;;;;;;;;;;;;;;;;4957429;28;20018;-89
2023/03/10 15:48:59;;;;;;;;;;;;;;;;;;4942374;28;19922;-90
2023/03/10 15:51:25;;;;;;;;;;;;;;;;;;4942039;28;19921;-89
2023/03/10 15:53:51;;;;;;;;;;;;;;;;;;4941771;28;20394;-91
2023/03/10 15:56:17;;;;;;;;;;;;;;;;;;4941716;28;20305;-92
2023/03/10 15:58:43;;;;;;;;;;;;;;;;;;4940841;28;19926;-90
2023/03/10 16:01:09;;;;;;;;;;;;;;;;;;4941540;28;19926;-89
2023/03/10 16:03:38;;;;;;;;;;;;;;;;;;4942293;28;20390;-90
2023/03/10 16:06:04;;;;;;;;;;;;;;;;;;4941538;28;19922;-90
2023/03/10 16:08:35;;;;;;;;;;;;;;;;;;4941568;28;19936;-89
2023/03/10 16:11:01;;;;;;;;;;;;;;;;;;4941786;28;19930;-89
2023/03/10 16:13:27;;;;;;;;;;;;;;;;;;4957121;28;19925;-89
2023/03/10 16:15:53;;;;;;;;;;;;;;;;;;4941401;28;20323;-89
2023/03/10 16:18:19;;;;;;;;;;;;;;;;;;4941270;28;19981;-89
2023/03/10 16:20:45;;;;;;;;;;;;;;;;;;4941132;28;19922;-91
2023/03/10 16:23:11;;;;;;;;;;;;;;;;;;4941102;28;20437;-89
2023/03/10 16:25:37;;;;;;;;;;;;;;;;;;4941401;28;19984;-90
2023/03/10 16:28:03;;;;;;;;;;;;;;;;;;4941190;28;19949;-89
2023/03/10 16:30:29;;;;;;;;;;;;;;;;;;4941477;28;19922;-93
2023/03/10 16:32:59;;;;;;;;;;;;;;;;;;4943798;28;20378;-92
2023/03/10 16:35:27;;;;;;;;;;;;;;;;;;4941552;28;19974;-93
2023/03/10 16:37:53;;;;;;;;;;;;;;;;;;4941504;28;19926;-89
2023/03/10 16:40:21;;;;;;;;;;;;;;;;;;4957345;28;19933;-92
2023/03/10 16:42:47;;;;;;;;;;;;;;;;;;4941006;28;20330;-90
2023/03/10 16:45:13;;;;;;;;;;;;;;;;;;4941174;28;19922;-90
2023/03/10 16:47:42;;;;;;;;;;;;;;;;;;4958246;28;20210;-90
2023/03/10 16:50:11;;;;;;;;;;;;;;;;;;4959001;28;19933;-91
2023/03/10 16:52:37;;;;;;;;;;;;;;;;;;4941407;28;19932;-93
2023/03/10 16:55:04;;;;;;;;;;;;;;;;;;4940687;28;19922;-92
2023/03/10 16:57:31;;;;;;;;;;;;;;;;;;4940984;28;19928;-93
2023/03/10 16:59:57;;;;;;;;;;;;;;;;;;4941310;28;20275;-91
2023/03/10 17:02:23;;;;;;;;;;;;;;;;;;4941485;28;19922;-91
2023/03/10 17:04:49;;;;;;;;;;;;;;;;;;4958573;28;20414;-91
2023/03/10 17:07:15;;;;;;;;;;;;;;;;;;4942905;28;20272;-92
2023/03/10 17:09:41;;;;;;;;;;;;;;;;;;4942786;28;19929;-89
2023/03/10 17:12:07;;;;;;;;;;;;;;;;;;4941851;28;20287;-90
2023/03/10 17:14:33;;;;;;;;;;;;;;;;;;4951981;28;19921;-89
2023/03/10 17:16:59;;;;;;;;;;;;;;;;;;4977156;28;19925;-93
2023/03/10 17:19:28;;;;;;;;;;;;;;;;;;4960672;28;19933;-92
2023/03/10 17:21:56;;;;;;;;;;;;;;;;;;4961748;28;20020;-90
2023/03/10 17:24:22;;;;;;;;;;;;;;;;;;4961321;28;19922;-91
2023/03/10 17:26:48;;;;;;;;;;;;;;;;;;4960884;28;20008;-92
2023/03/10 17:29:14;;;;;;;;;;;;;;;;;;4960255;28;19975;-92
2023/03/10 17:31:40;;;;;;;;;;;;;;;;;;4960661;28;19965;-91
2023/03/10 17:34:06;;;;;;;;;;;;;;;;;;4959848;28;19922;-90
2023/03/10 17:36:32;;;;;;;;;;;;;;;;;;4975293;28;19926;-91
2023/03/10 17:38:58;;;;;;;;;;;;;;;;;;4959837;28;19933;-92
2023/03/10 17:41:24;;;;;;;;;;;;;;;;;;4960032;28;19922;-91
2023/03/10 17:43:50;;;;;;;;;;;;;;;;;;4959603;28;19922;-91
2023/03/10 17:46:15;;;;;;;;;;;;;;;;;;4959831;28;19996;-92
2023/03/10 17:48:42;;;;;;;;;;;;;;;;;;4976408;28;19973;-92
2023/03/10 17:51:08;;;;;;;;;;;;;;;;;;4959623;28;20004;-90
2023/03/10 17:53:34;;;;;;;;;;;;;;;;;;4959621;28;20009;-92
2023/03/10 17:56:00;;;;;;;;;;;;;;;;;;4975849;28;19921;-93